Time;durP1;ratioP1;P1;durP2;ratioP2;P2;SDS_P1;SDS_P2;PMS_P1;PMS_P2;Temp;Humidity;BMP_temperature;BMP_pressure;BME280_temperature;BME280_humidity;BME280_pressure;Samples;Min_cycle;Max_cycle;Signal;HPM_P1;HPM_P2
2023/08/14 00:00:19;;;;;;;26.93;5.20;;;27.90;52.50;;;;;;5079070;28;20219;-76
2023/08/14 00:02:46;;;;;;;28.30;5.17;;;27.90;52.50;;;;;;5081896;28;20217;-77
2023/08/14 00:05:14;;;;;;;28.47;5.63;;;27.90;52.50;;;;;;5066729;28;20207;-75
2023/08/14 00:07:40;;;;;;;26.13;5.20;;;27.90;52.50;;;;;;5086541;28;21083;-75
2023/08/14 00:10:08;;;;;;;44.43;6.83;;;27.90;53.10;;;;;;5084820;28;21105;-75
2023/08/14 00:12:36;;;;;;;30.57;5.53;;;27.90;52.50;;;;;;5097304;28;20197;-75
2023/08/14 00:15:04;;;;;;;23.03;4.97;;;27.90;52.50;;;;;;5085437;28;20367;-74
2023/08/14 00:17:31;;;;;;;26.60;5.20;;;28.00;52.60;;;;;;5064711;28;20281;-75
2023/08/14 00:19:58;;;;;;;27.43;5.33;;;28.00;52.60;;;;;;5064494;28;20571;-74
2023/08/14 00:22:25;;;;;;;32.33;5.70;;;28.00;52.60;;;;;;5064990;28;20274;-73
2023/08/14 00:24:52;;;;;;;24.23;5.03;;;28.00;52.60;;;;;;5064686;28;20199;-75
2023/08/14 00:27:21;;;;;;;27.13;5.17;;;27.90;52.50;;;;;;5064138;28;20235;-73
2023/08/14 00:29:49;;;;;;;42.30;6.63;;;28.00;52.60;;;;;;5067082;28;20202;-74
2023/08/14 00:32:16;;;;;;;24.40;5.17;;;27.90;52.50;;;;;;5064515;28;20199;-75
2023/08/14 00:34:43;;;;;;;28.40;5.30;;;27.90;52.50;;;;;;5064499;28;20235;-74
2023/08/14 00:37:10;;;;;;;20.73;4.83;;;27.90;52.60;;;;;;5070037;28;20202;-73
2023/08/14 00:39:37;;;;;;;32.83;5.73;;;27.90;52.50;;;;;;5084415;28;20206;-73
2023/08/14 00:42:04;;;;;;;25.63;5.20;;;27.90;52.50;;;;;;5083819;28;20198;-73
2023/08/14 00:44:31;;;;;;;66.93;8.73;;;27.90;52.50;;;;;;5062968;28;20665;-76
2023/08/14 00:46:59;;;;;;;23.73;4.93;;;27.90;53.10;;;;;;5083153;28;20256;-73
2023/08/14 00:49:26;;;;;;;26.40;5.23;;;27.90;52.50;;;;;;5084059;28;20219;-73
2023/08/14 00:51:54;;;;;;;22.00;4.93;;;27.90;52.50;;;;;;5078441;28;20203;-73
2023/08/14 00:54:20;;;;;;;26.50;5.30;;;27.80;52.50;;;;;;5069772;28;20304;-74
2023/08/14 00:56:47;;;;;;;25.60;5.13;;;27.80;52.50;;;;;;5083504;28;20209;-72
2023/08/14 00:59:14;;;;;;;24.73;4.80;;;27.80;52.50;;;;;;5082461;28;20718;-74
2023/08/14 01:01:42;;;;;;;47.20;7.43;;;27.80;52.50;;;;;;5082527;28;20209;-73
2023/08/14 01:04:10;;;;;;;51.23;7.30;;;27.90;52.50;;;;;;5082282;28;20192;-74
2023/08/14 01:06:37;;;;;;;23.70;5.13;;;27.90;52.50;;;;;;5053735;28;20719;-73
2023/08/14 01:09:04;;;;;;;25.70;5.07;;;27.80;52.50;;;;;;5070539;28;20291;-75
2023/08/14 01:11:41;;;;;;;27.93;5.40;;;27.80;52.50;;;;;;5070532;28;20199;-75
2023/08/14 01:14:16;;;;;;;26.80;5.27;;;27.80;52.50;;;;;;5060621;28;20231;-75
2023/08/14 01:16:50;;;;;;;32.47;6.07;;;27.80;52.50;;;;;;5059486;28;20291;-73
2023/08/14 01:19:21;;;;;;;22.83;4.73;;;27.80;52.50;;;;;;5070576;28;20297;-74
2023/08/14 01:22:01;;;;;;;30.40;5.70;;;27.80;52.50;;;;;;5070462;28;20297;-75
2023/08/14 01:24:40;;;;;;;27.13;5.47;;;27.80;52.50;;;;;;5070197;28;20269;-75
2023/08/14 01:27:09;;;;;;;30.27;5.53;;;27.80;52.50;;;;;;5069439;28;20293;-75
2023/08/14 01:29:36;;;;;;;27.80;5.40;;;27.70;52.40;;;;;;5070058;28;20206;-75
2023/08/14 01:32:04;;;;;;;26.23;6.00;;;27.70;52.40;;;;;;5067633;28;20648;-76
2023/08/14 01:34:31;;;;;;;26.70;5.53;;;27.70;52.40;;;;;;5069181;28;20338;-75
2023/08/14 01:37:05;;;;;;;26.90;5.57;;;27.70;53.00;;;;;;5070222;28;20242;-76
2023/08/14 01:39:46;;;;;;;22.20;5.07;;;27.70;52.40;;;;;;5070411;28;20965;-76
2023/08/14 01:42:22;;;;;;;43.80;6.97;;;27.70;52.40;;;;;;5068899;28;20573;-74
2023/08/14 01:44:53;;;;;;;23.37;4.73;;;27.70;52.40;;;;;;5070586;28;20230;-75
2023/08/14 01:47:22;;;;;;;31.50;5.67;;;27.70;52.40;;;;;;5055354;28;20657;-72
2023/08/14 01:49:50;;;;;;;49.53;7.43;;;27.70;52.40;;;;;;5056783;28;20290;-73
2023/08/14 01:52:17;;;;;;;24.90;5.37;;;27.70;52.40;;;;;;5052158;28;20204;-76
2023/08/14 01:54:44;;;;;;;26.43;5.20;;;27.70;52.40;;;;;;5052648;28;20263;-73
2023/08/14 01:57:11;;;;;;;24.83;5.10;;;27.60;52.30;;;;;;5049506;28;20736;-72
2023/08/14 01:59:43;;;;;;;26.00;5.07;;;27.70;53.00;;;;;;5059809;28;20291;-75
2023/08/14 02:02:11;;;;;;;43.20;6.50;;;27.60;52.30;;;;;;5068461;28;20209;-74
2023/08/14 02:04:39;;;;;;;26.97;5.37;;;27.60;52.30;;;;;;5069361;28;20202;-75
2023/08/14 02:07:06;;;;;;;22.83;4.93;;;27.70;52.40;;;;;;5069353;28;20216;-75
2023/08/14 02:09:33;;;;;;;20.77;4.80;;;27.60;52.30;;;;;;5069883;28;20203;-75
2023/08/14 02:12:00;;;;;;;26.83;5.13;;;27.60;52.30;;;;;;5069629;28;20280;-73
2023/08/14 02:14:27;;;;;;;30.67;5.43;;;27.60;52.30;;;;;;5068138;28;20310;-75
2023/08/14 02:16:55;;;;;;;24.73;5.07;;;27.60;52.30;;;;;;5068275;28;20299;-74
2023/08/14 02:19:22;;;;;;;32.97;5.67;;;27.60;52.30;;;;;;5068456;28;20227;-76
2023/08/14 02:21:49;;;;;;;31.33;5.63;;;27.60;52.30;;;;;;5049364;28;20313;-75
2023/08/14 02:24:16;;;;;;;21.43;4.70;;;27.60;52.30;;;;;;5066405;28;20640;-75
2023/08/14 02:26:43;;;;;;;28.17;5.20;;;27.60;52.30;;;;;;5068920;28;20314;-75
2023/08/14 02:29:10;;;;;;;33.80;5.90;;;27.60;52.30;;;;;;5060285;28;20207;-75
2023/08/14 02:31:37;;;;;;;26.40;5.13;;;27.50;52.30;;;;;;5053450;28;20286;-75
2023/08/14 02:34:05;;;;;;;24.30;5.00;;;27.50;52.30;;;;;;5048501;28;20267;-75
2023/08/14 02:36:32;;;;;;;35.77;6.13;;;27.50;52.30;;;;;;5048494;28;20667;-75
2023/08/14 02:38:59;;;;;;;26.07;4.87;;;27.50;52.30;;;;;;5048895;28;20204;-74
2023/08/14 02:41:26;;;;;;;28.43;5.40;;;27.50;52.30;;;;;;5048671;28;20188;-75
2023/08/14 02:43:53;;;;;;;53.03;7.43;;;27.50;52.40;;;;;;5047221;28;20291;-75
2023/08/14 02:46:21;;;;;;;23.10;5.00;;;27.40;52.40;;;;;;5048522;28;20219;-74
2023/08/14 02:48:48;;;;;;;30.27;5.63;;;27.50;52.50;;;;;;5061383;28;20286;-74
2023/08/14 02:51:16;;;;;;;33.50;6.00;;;27.40;52.40;;;;;;5062752;28;20234;-74
2023/08/14 02:53:43;;;;;;;26.90;5.27;;;27.40;52.40;;;;;;5067061;28;20226;-75
2023/08/14 02:56:10;;;;;;;21.17;4.70;;;27.40;52.40;;;;;;5066883;28;20325;-75
2023/08/14 02:58:37;;;;;;;27.30;5.20;;;27.50;52.50;;;;;;5067976;28;20200;-75
2023/08/14 03:01:04;;;;;;;25.20;5.13;;;27.40;52.50;;;;;;5068109;28;20321;-75
2023/08/14 03:03:31;;;;;;;34.33;5.97;;;27.40;52.50;;;;;;5065645;28;20214;-75
2023/08/14 03:05:59;;;;;;;25.63;5.37;;;27.40;52.50;;;;;;5067915;28;20211;-75
2023/08/14 03:08:28;;;;;;;22.03;4.83;;;27.40;52.50;;;;;;5068197;28;20239;-75
2023/08/14 03:10:55;;;;;;;28.67;5.43;;;27.40;52.50;;;;;;5067749;28;20663;-75
2023/08/14 03:13:22;;;;;;;17.73;4.53;;;27.40;52.50;;;;;;5068154;28;20207;-75
2023/08/14 03:15:49;;;;;;;41.37;6.57;;;27.40;52.50;;;;;;5065423;28;20334;-73
2023/08/14 03:18:16;;;;;;;51.53;7.23;;;27.40;52.50;;;;;;5063846;28;20218;-76
2023/08/14 03:20:43;;;;;;;28.10;5.43;;;27.40;52.60;;;;;;5068181;28;20295;-74
2023/08/14 03:23:09;;;;;;;23.90;5.30;;;27.40;52.60;;;;;;5067936;28;20286;-75
2023/08/14 03:25:38;;;;;;;28.80;5.40;;;27.40;52.60;;;;;;5067002;28;20294;-75
2023/08/14 03:28:06;;;;;;;23.90;5.23;;;27.40;52.60;;;;;;5065746;28;20278;-75
2023/08/14 03:30:34;;;;;;;32.43;5.60;;;27.40;52.60;;;;;;5068007;28;20252;-75
2023/08/14 03:33:01;;;;;;;27.07;5.10;;;27.40;52.60;;;;;;5061566;28;20246;-76
2023/08/14 03:35:28;;;;;;;25.63;5.57;;;27.40;52.70;;;;;;5068299;28;20241;-76
2023/08/14 03:37:55;;;;;;;30.00;5.80;;;27.40;52.60;;;;;;5056198;28;20203;-75
2023/08/14 03:40:22;;;;;;;32.63;5.77;;;27.40;52.60;;;;;;5051379;28;20203;-77
2023/08/14 03:42:50;;;;;;;26.60;5.20;;;27.30;53.20;;;;;;5057329;28;20239;-76
2023/08/14 03:45:17;;;;;;;29.73;5.53;;;27.40;52.60;;;;;;5066690;28;20651;-77
2023/08/14 03:47:44;;;;;;;26.40;5.53;;;27.40;52.60;;;;;;5060975;28;20235;-76
2023/08/14 03:50:11;;;;;;;26.37;5.30;;;27.30;52.60;;;;;;5055913;28;20202;-76
2023/08/14 03:52:38;;;;;;;25.87;5.37;;;27.30;52.60;;;;;;5067758;28;20314;-73
2023/08/14 03:55:07;;;;;;;23.13;4.90;;;27.30;52.60;;;;;;5067060;28;20227;-76
2023/08/14 03:57:34;;;;;;;25.53;5.37;;;27.30;52.60;;;;;;5067146;28;20308;-75
2023/08/14 04:00:02;;;;;;;31.80;5.77;;;27.30;52.60;;;;;;5067399;28;20315;-77
2023/08/14 04:02:29;;;;;;;27.27;5.43;;;27.30;52.60;;;;;;5066945;28;20239;-76
2023/08/14 04:04:56;;;;;;;30.50;5.77;;;27.30;52.60;;;;;;5066433;28;20203;-74
2023/08/14 04:07:23;;;;;;;23.60;5.07;;;27.30;52.60;;;;;;5062975;28;20793;-76
2023/08/14 04:09:50;;;;;;;24.53;5.00;;;27.30;52.60;;;;;;5047754;28;20204;-73
2023/08/14 04:12:17;;;;;;;43.10;6.87;;;27.30;52.60;;;;;;5046415;28;20616;-73
2023/08/14 04:14:44;;;;;;;22.67;4.93;;;27.30;52.60;;;;;;5047619;28;20267;-75
2023/08/14 04:17:13;;;;;;;31.63;5.87;;;27.30;52.60;;;;;;5047388;28;20204;-75
2023/08/14 04:19:40;;;;;;;26.73;5.67;;;27.30;52.60;;;;;;5061010;28;20199;-74
2023/08/14 04:22:07;;;;;;;27.60;5.53;;;27.30;52.60;;;;;;5067601;28;20715;-75
2023/08/14 04:24:34;;;;;;;26.00;5.33;;;27.30;52.70;;;;;;5066230;28;20196;-76
2023/08/14 04:27:01;;;;;;;31.33;5.80;;;27.30;52.60;;;;;;5064196;28;20204;-76
2023/08/14 04:29:28;;;;;;;25.07;5.27;;;27.30;52.70;;;;;;5047030;28;20565;-76
2023/08/14 04:31:55;;;;;;;48.83;7.00;;;27.30;52.60;;;;;;5047309;28;20291;-76
2023/08/14 04:34:23;;;;;;;36.70;5.93;;;27.20;52.60;;;;;;5067396;28;20291;-76
2023/08/14 04:36:51;;;;;;;27.93;5.53;;;27.30;52.70;;;;;;5067248;28;20680;-75
2023/08/14 04:39:18;;;;;;;27.10;5.60;;;27.20;52.60;;;;;;5063543;28;20200;-75
2023/08/14 04:41:45;;;;;;;25.23;5.07;;;27.30;52.70;;;;;;5070127;28;20199;-75
2023/08/14 04:44:12;;;;;;;21.83;5.13;;;27.30;52.70;;;;;;5064411;28;20293;-76
2023/08/14 04:47:56;;;;;;;28.00;5.53;;;27.30;52.30;;;;;;5063203;28;20586;-73
2023/08/14 04:50:23;;;;;;;21.20;4.57;;;27.20;52.70;;;;;;5064681;28;20585;-73
2023/08/14 04:52:50;;;;;;;24.60;5.33;;;27.30;52.80;;;;;;5065149;28;20768;-73
2023/08/14 04:55:17;;;;;;;22.93;5.17;;;27.30;52.80;;;;;;5065022;28;20732;-73
2023/08/14 04:57:44;;;;;;;24.20;5.03;;;27.30;52.80;;;;;;5064887;28;20722;-74
2023/08/14 05:00:12;;;;;;;28.53;5.53;;;27.30;52.80;;;;;;5044986;28;20267;-73
2023/08/14 05:02:40;;;;;;;29.23;5.37;;;27.30;52.80;;;;;;5059192;28;20215;-73
2023/08/14 05:05:09;;;;;;;31.10;5.63;;;27.20;53.30;;;;;;5055829;28;20274;-73
2023/08/14 05:07:36;;;;;;;22.57;5.37;;;27.30;52.80;;;;;;5063027;28;20230;-73
2023/08/14 05:10:03;;;;;;;31.43;5.80;;;27.20;52.70;;;;;;5063472;28;20207;-73
2023/08/14 05:12:30;;;;;;;27.93;5.13;;;27.20;52.70;;;;;;5063981;28;20859;-73
2023/08/14 05:14:57;;;;;;;16.53;4.20;;;27.20;52.80;;;;;;5062590;28;20287;-73
2023/08/14 05:17:24;;;;;;;17.13;4.37;;;27.20;52.80;;;;;;5064665;28;20290;-73
2023/08/14 05:19:51;;;;;;;27.83;5.53;;;27.20;52.80;;;;;;5060792;28;20664;-73
2023/08/14 05:22:20;;;;;;;31.40;5.67;;;27.20;52.80;;;;;;5063635;28;20248;-73
2023/08/14 05:24:47;;;;;;;19.07;4.60;;;27.20;52.80;;;;;;5064507;28;20192;-74
2023/08/14 05:27:14;;;;;;;30.87;5.70;;;27.20;52.80;;;;;;5064151;28;20307;-74
2023/08/14 05:29:43;;;;;;;41.63;6.60;;;27.20;52.80;;;;;;5063227;28;20211;-73
2023/08/14 05:32:10;;;;;;;19.37;4.53;;;27.20;52.80;;;;;;5063283;28;20199;-73
2023/08/14 05:34:37;;;;;;;26.17;5.50;;;27.20;52.80;;;;;;5064476;28;20278;-73
2023/08/14 05:37:04;;;;;;;26.67;5.43;;;27.20;52.80;;;;;;5053234;28;20287;-73
2023/08/14 05:39:33;;;;;;;28.53;5.47;;;27.20;52.80;;;;;;5043975;28;20282;-73
2023/08/14 05:42:00;;;;;;;28.73;5.37;;;27.20;52.80;;;;;;5060763;28;20676;-72
2023/08/14 05:44:26;;;;;;;29.87;5.60;;;27.20;52.80;;;;;;5063970;28;20235;-73
2023/08/14 05:46:53;;;;;;;41.80;6.67;;;27.20;52.80;;;;;;5062172;28;20227;-73
2023/08/14 05:49:21;;;;;;;18.97;4.80;;;27.20;52.80;;;;;;5057845;28;20282;-73
2023/08/14 05:51:48;;;;;;;22.97;5.17;;;27.20;52.80;;;;;;5062919;28;20622;-73
2023/08/14 05:54:15;;;;;;;27.20;5.43;;;27.20;52.80;;;;;;5062686;28;20235;-73
2023/08/14 05:56:44;;;;;;;21.27;4.53;;;27.10;52.80;;;;;;5063673;28;20699;-73
2023/08/14 05:59:12;;;;;;;21.33;4.83;;;27.20;52.80;;;;;;5050164;28;20678;-73
2023/08/14 06:01:39;;;;;;;37.00;6.20;;;27.20;52.80;;;;;;5049763;28;20700;-73
2023/08/14 06:04:06;;;;;;;27.43;5.27;;;27.20;52.90;;;;;;5049097;28;20230;-73
2023/08/14 06:06:33;;;;;;;27.70;5.27;;;27.10;52.80;;;;;;5049659;28;20234;-73
2023/08/14 06:09:01;;;;;;;25.50;5.67;;;27.10;52.80;;;;;;5049911;28;20283;-73
2023/08/14 06:11:29;;;;;;;27.33;5.60;;;27.10;52.80;;;;;;5046053;28;20193;-73
2023/08/14 06:13:57;;;;;;;20.37;4.83;;;27.10;52.80;;;;;;5030676;28;20275;-73
2023/08/14 06:16:24;;;;;;;30.70;5.63;;;27.10;52.90;;;;;;5049245;28;20211;-73
2023/08/14 06:18:51;;;;;;;31.50;5.83;;;27.10;52.90;;;;;;5047627;28;20291;-73
2023/08/14 06:21:18;;;;;;;31.83;6.00;;;27.10;52.90;;;;;;5032770;28;20196;-73
2023/08/14 06:23:45;;;;;;;29.33;5.83;;;27.10;53.50;;;;;;5043050;28;20209;-73
2023/08/14 06:26:12;;;;;;;21.93;5.20;;;27.10;52.90;;;;;;5030166;28;20681;-73
2023/08/14 06:28:39;;;;;;;27.93;5.30;;;27.10;52.90;;;;;;5032966;28;20208;-73
2023/08/14 06:31:09;;;;;;;22.43;4.93;;;27.10;52.90;;;;;;5030185;28;20622;-73
2023/08/14 06:33:36;;;;;;;28.97;5.53;;;27.10;52.90;;;;;;5029884;28;20228;-73
2023/08/14 06:36:03;;;;;;;40.37;6.57;;;27.10;52.90;;;;;;5036449;28;20294;-73
2023/08/14 06:38:30;;;;;;;27.43;5.67;;;27.10;53.00;;;;;;5049350;28;20196;-72
2023/08/14 06:40:56;;;;;;;34.20;6.10;;;27.10;53.00;;;;;;5030140;28;20212;-73
2023/08/14 06:43:23;;;;;;;29.17;5.50;;;27.10;53.00;;;;;;5036786;28;20202;-73
2023/08/14 06:45:50;;;;;;;20.57;4.83;;;27.10;53.00;;;;;;5049350;28;20232;-73
2023/08/14 06:48:19;;;;;;;25.00;5.37;;;27.10;53.00;;;;;;5047383;28;20227;-73
2023/08/14 06:50:46;;;;;;;26.07;5.27;;;27.10;53.00;;;;;;5049380;28;20196;-73
2023/08/14 06:53:13;;;;;;;37.67;6.53;;;27.10;53.00;;;;;;5047859;28;20232;-72
2023/08/14 06:55:40;;;;;;;21.57;4.63;;;27.10;53.00;;;;;;5048352;28;20323;-73
2023/08/14 06:58:07;;;;;;;32.37;5.70;;;27.10;53.10;;;;;;5048828;28;20250;-73
2023/08/14 07:00:34;;;;;;;27.43;5.60;;;27.10;53.00;;;;;;5045458;28;20199;-73
2023/08/14 07:03:01;;;;;;;38.40;6.60;;;27.10;53.00;;;;;;5046910;28;20300;-73
2023/08/14 07:05:29;;;;;;;29.73;6.03;;;27.10;53.10;;;;;;5048680;28;20204;-73
2023/08/14 07:07:56;;;;;;;18.87;4.47;;;27.10;53.10;;;;;;5048434;28;20234;-73
2023/08/14 07:10:23;;;;;;;20.07;4.60;;;27.10;53.10;;;;;;5034409;28;20209;-73
2023/08/14 07:12:50;;;;;;;32.53;5.90;;;27.10;53.10;;;;;;5029082;28;20292;-73
2023/08/14 07:15:20;;;;;;;27.67;5.37;;;27.10;53.10;;;;;;5047106;28;20212;-73
2023/08/14 07:17:47;;;;;;;31.90;5.77;;;27.10;53.10;;;;;;5049352;28;20200;-73
2023/08/14 07:20:14;;;;;;;27.43;5.37;;;27.10;53.10;;;;;;5038757;28;20244;-73
2023/08/14 07:22:42;;;;;;;26.87;5.80;;;27.10;53.10;;;;;;5029409;28;20301;-73
2023/08/14 07:25:10;;;;;;;32.67;5.90;;;27.20;53.20;;;;;;5038138;28;20206;-73
2023/08/14 07:27:37;;;;;;;17.33;4.50;;;27.20;53.20;;;;;;5044993;28;20325;-73
2023/08/14 07:30:06;;;;;;;23.90;5.30;;;27.20;53.20;;;;;;5048900;28;20285;-73
2023/08/14 07:32:33;;;;;;;19.73;4.63;;;27.20;53.20;;;;;;5048316;28;20559;-73
2023/08/14 07:35:00;;;;;;;30.27;5.83;;;27.20;53.20;;;;;;5047410;28;20240;-73
2023/08/14 07:37:27;;;;;;;31.30;5.70;;;27.20;53.20;;;;;;5041082;28;20316;-74
2023/08/14 07:39:56;;;;;;;19.20;5.07;;;27.20;53.30;;;;;;5042512;28;20200;-73
2023/08/14 07:42:23;;;;;;;24.00;5.07;;;27.20;53.30;;;;;;5046090;28;20286;-74
2023/08/14 07:44:51;;;;;;;22.37;4.77;;;27.20;53.30;;;;;;5048065;28;20301;-73
2023/08/14 07:47:18;;;;;;;35.13;6.23;;;27.30;53.30;;;;;;5048061;28;20278;-73
2023/08/14 07:49:45;;;;;;;26.63;5.37;;;27.30;53.40;;;;;;5048542;28;20291;-74
2023/08/14 07:52:12;;;;;;;24.97;5.23;;;27.30;53.30;;;;;;5048460;28;20780;-73
2023/08/14 07:54:39;;;;;;;27.50;5.20;;;27.30;53.40;;;;;;5044380;28;20208;-73
2023/08/14 07:57:07;;;;;;;26.77;5.37;;;27.30;53.40;;;;;;5048134;28;20295;-74
2023/08/14 07:59:34;;;;;;;28.07;5.60;;;27.30;53.40;;;;;;5048293;28;20735;-73
2023/08/14 08:02:01;;;;;;;29.70;5.83;;;27.40;53.40;;;;;;5037310;28;20295;-73
2023/08/14 08:04:34;;;;;;;22.70;5.17;;;27.40;53.40;;;;;;5028040;28;20251;-73
2023/08/14 08:07:01;;;;;;;26.80;5.47;;;27.40;53.40;;;;;;5028420;28;20236;-74
2023/08/14 08:09:28;;;;;;;31.50;5.87;;;27.40;54.00;;;;;;5028084;28;20576;-75
2023/08/14 08:11:55;;;;;;;25.97;5.63;;;27.50;53.50;;;;;;5047321;28;20234;-75
2023/08/14 08:14:24;;;;;;;28.13;5.40;;;27.50;53.50;;;;;;5044632;28;20283;-74
2023/08/14 08:16:51;;;;;;;25.70;5.43;;;27.50;53.50;;;;;;5035883;28;20291;-73
2023/08/14 08:19:18;;;;;;;26.07;5.30;;;27.50;53.50;;;;;;5045188;28;20401;-73
2023/08/14 08:21:45;;;;;;;30.20;6.03;;;27.50;53.50;;;;;;5047744;28;20273;-73
2023/08/14 08:24:12;;;;;;;30.50;5.57;;;27.60;53.60;;;;;;5046894;28;20317;-73
2023/08/14 08:26:39;;;;;;;27.37;5.67;;;27.60;53.60;;;;;;5047467;28;20246;-73
2023/08/14 08:29:06;;;;;;;24.50;5.43;;;27.60;53.60;;;;;;5047749;28;20739;-73
2023/08/14 08:31:34;;;;;;;23.80;5.40;;;27.60;53.60;;;;;;5047607;28;20684;-73
2023/08/14 08:34:01;;;;;;;20.20;4.80;;;27.70;53.70;;;;;;5046314;28;20235;-73
2023/08/14 08:36:28;;;;;;;21.87;5.30;;;27.70;53.70;;;;;;5026979;28;20303;-73
2023/08/14 08:38:55;;;;;;;20.47;5.13;;;27.70;53.70;;;;;;5032316;28;20200;-73
2023/08/14 08:41:26;;;;;;;35.97;6.50;;;27.70;53.70;;;;;;5046917;28;20283;-74
2023/08/14 08:44:02;;;;;;;20.40;5.40;;;27.70;53.70;;;;;;5047561;28;20196;-73
2023/08/14 08:46:32;;;;;;;48.57;7.37;;;27.80;53.80;;;;;;5046885;28;20294;-73
2023/08/14 08:49:00;;;;;;;29.70;5.57;;;27.80;53.70;;;;;;5046785;28;20230;-73
2023/08/14 08:51:27;;;;;;;33.83;6.23;;;27.80;53.70;;;;;;5046931;28;20382;-73
2023/08/14 08:53:54;;;;;;;23.80;5.23;;;27.80;53.70;;;;;;5045867;28;20290;-73
2023/08/14 08:56:22;;;;;;;29.00;5.77;;;27.90;53.80;;;;;;5040543;28;20287;-74
2023/08/14 08:58:50;;;;;;;20.83;5.30;;;27.90;53.80;;;;;;5027532;28;20267;-73
2023/08/14 09:01:17;;;;;;;26.10;5.77;;;27.90;53.80;;;;;;5029914;28;20310;-75
2023/08/14 09:03:45;;;;;;;31.70;6.40;;;28.00;53.80;;;;;;5028316;28;20575;-72
2023/08/14 09:06:13;;;;;;;25.63;5.77;;;28.00;53.80;;;;;;5042595;28;20192;-72
2023/08/14 09:08:40;;;;;;;26.30;5.87;;;28.00;53.80;;;;;;5027856;28;20236;-72
2023/08/14 09:11:07;;;;;;;35.83;7.00;;;28.10;53.90;;;;;;5027567;28;20335;-66
2023/08/14 09:13:34;;;;;;;29.27;6.03;;;28.10;53.80;;;;;;5033034;28;20289;-69
2023/08/14 09:16:02;;;;;;;64.00;9.27;;;28.20;53.90;;;;;;5042937;28;20328;-70
2023/08/14 09:18:30;;;;;;;68.13;9.37;;;28.20;53.90;;;;;;5039831;28;20287;-66
2023/08/14 09:20:58;;;;;;;29.17;6.10;;;28.20;53.90;;;;;;5036264;28;20200;-66
2023/08/14 09:23:26;;;;;;;27.67;6.07;;;28.30;53.90;;;;;;5030593;28;20295;-67
2023/08/14 09:25:53;;;;;;;25.63;5.93;;;28.30;53.90;;;;;;5027407;28;20750;-72
2023/08/14 09:28:22;;;;;;;35.37;6.73;;;28.30;53.90;;;;;;5027343;28;20232;-66
2023/08/14 09:30:49;;;;;;;33.27;6.20;;;28.40;54.00;;;;;;5026886;28;20665;-71
2023/08/14 09:33:16;;;;;;;20.80;4.80;;;28.40;53.90;;;;;;5041076;28;20211;-66
2023/08/14 09:35:53;;;;;;;27.00;6.30;;;28.40;53.60;;;;;;5051006;28;21067;-67
2023/08/14 09:38:20;;;;;;;41.00;7.23;;;28.50;53.60;;;;;;5050457;28;20649;-69
2023/08/14 09:40:48;;;;;;;27.47;5.97;;;28.50;53.60;;;;;;5051021;28;20316;-68
2023/08/14 09:43:15;;;;;;;27.00;6.07;;;28.60;53.60;;;;;;5042127;28;20200;-67
2023/08/14 09:45:42;;;;;;;32.93;6.20;;;28.60;53.60;;;;;;5030041;28;20235;-68
2023/08/14 09:48:09;;;;;;;21.13;5.10;;;28.60;53.60;;;;;;5030826;28;20232;-67
2023/08/14 09:50:36;;;;;;;24.60;5.30;;;28.70;53.70;;;;;;5047545;28;20196;-68
2023/08/14 09:53:03;;;;;;;36.23;6.67;;;28.70;53.60;;;;;;5044658;28;20338;-70
2023/08/14 09:55:33;;;;;;;23.40;5.50;;;28.70;53.50;;;;;;5050475;28;20561;-69
2023/08/14 09:58:01;;;;;;;33.90;7.00;;;28.80;53.60;;;;;;5050103;28;20214;-67
2023/08/14 10:00:31;;;;;;;27.93;6.43;;;28.80;53.60;;;;;;5050630;28;20357;-69
2023/08/14 10:03:00;;;;;;;22.27;5.40;;;28.80;53.40;;;;;;5035887;28;20766;-66
2023/08/14 10:05:28;;;;;;;24.40;5.63;;;28.90;53.30;;;;;;5045379;28;20254;-66
2023/08/14 10:07:56;;;;;;;26.00;5.70;;;28.90;53.20;;;;;;5033715;28;20488;-68
2023/08/14 10:10:25;;;;;;;22.93;5.37;;;29.00;53.20;;;;;;5033842;28;20706;-69
2023/08/14 10:12:57;;;;;;;29.07;5.83;;;29.00;53.20;;;;;;5048381;28;20240;-69
2023/08/14 10:15:30;;;;;;;29.30;6.00;;;29.10;53.10;;;;;;5034178;28;20244;-70
2023/08/14 10:17:58;;;;;;;23.87;5.60;;;29.10;53.20;;;;;;5049483;28;20287;-74
2023/08/14 10:20:28;;;;;;;28.97;6.17;;;29.20;53.30;;;;;;5041496;28;20207;-67
2023/08/14 10:22:55;;;;;;;33.03;6.33;;;29.20;53.30;;;;;;5036201;28;20224;-67
2023/08/14 10:25:23;;;;;;;22.03;5.43;;;29.20;53.30;;;;;;5049710;28;20693;-73
2023/08/14 10:27:52;;;;;;;43.23;7.13;;;29.30;53.20;;;;;;5048157;28;21229;-71
2023/08/14 10:30:22;;;;;;;23.80;5.63;;;29.30;53.10;;;;;;5049912;28;20296;-74
2023/08/14 10:32:51;;;;;;;49.13;7.77;;;29.40;53.10;;;;;;5047265;28;20656;-76
2023/08/14 10:35:18;;;;;;;26.90;5.90;;;29.50;53.10;;;;;;5049137;28;20247;-74
2023/08/14 10:37:47;;;;;;;34.63;6.50;;;29.50;53.10;;;;;;5049114;28;20965;-71
2023/08/14 10:40:16;;;;;;;24.57;5.93;;;29.60;53.10;;;;;;5047809;28;20437;-69
2023/08/14 10:42:46;;;;;;;38.00;6.83;;;29.70;53.00;;;;;;5048174;28;20278;-68
2023/08/14 10:45:17;;;;;;;25.33;5.83;;;29.80;53.00;;;;;;5048129;28;20236;-66
2023/08/14 10:47:45;;;;;;;24.57;6.00;;;29.90;53.00;;;;;;5049153;28;20318;-76
2023/08/14 10:50:19;;;;;;;30.47;6.77;;;30.00;53.10;;;;;;5048734;28;20563;-76
2023/08/14 10:52:48;;;;;;;29.80;6.23;;;30.20;53.10;;;;;;5029388;28;20753;-71
2023/08/14 10:55:16;;;;;;;58.13;8.67;;;30.30;53.20;;;;;;5035144;28;20204;-80
2023/08/14 10:57:45;;;;;;;35.13;6.87;;;30.50;53.30;;;;;;5036088;28;20193;-77
2023/08/14 11:00:23;;;;;;;31.60;6.37;;;30.70;53.10;;;;;;5046387;28;20731;-81
2023/08/14 11:03:04;;;;;;;33.50;6.43;;;30.80;52.90;;;;;;5048976;28;20880;-71
2023/08/14 11:05:37;;;;;;;31.40;6.63;;;31.00;53.10;;;;;;5044581;28;20204;-74
2023/08/14 11:08:07;;;;;;;29.90;6.57;;;31.30;52.70;;;;;;5039494;28;20307;-71
2023/08/14 11:10:35;;;;;;;23.98;5.53;;;31.40;52.80;;;;;;5048410;28;20208;-72
2023/08/14 11:13:02;;;;;;;32.53;6.20;;;31.60;52.50;;;;;;5048960;28;20204;-75
2023/08/14 11:15:32;;;;;;;28.10;6.47;;;31.80;52.50;;;;;;5038665;28;20204;-75
2023/08/14 11:17:59;;;;;;;50.28;8.45;;;32.00;52.20;;;;;;5045811;28;20315;-76
2023/08/14 11:20:27;;;;;;;22.48;5.63;;;32.10;51.90;;;;;;5040462;28;20207;-68
2023/08/14 11:22:55;;;;;;;18.63;4.97;;;32.20;51.60;;;;;;5048897;28;20338;-75
2023/08/14 11:25:23;;;;;;;53.42;8.18;;;32.30;51.30;;;;;;5042807;28;20649;-76
2023/08/14 11:27:52;;;;;;;28.45;6.20;;;32.30;51.10;;;;;;5048294;28;20216;-75
2023/08/14 11:30:21;;;;;;;46.95;7.75;;;32.40;50.90;;;;;;5033155;28;20319;-75
2023/08/14 11:32:48;;;;;;;23.98;5.72;;;32.40;50.70;;;;;;5047590;28;20295;-75
2023/08/14 11:35:17;;;;;;;24.90;6.03;;;32.40;50.70;;;;;;5048819;28;20190;-75
2023/08/14 11:37:44;;;;;;;19.63;5.20;;;32.40;50.70;;;;;;5048676;28;20283;-75
2023/08/14 11:40:15;;;;;;;29.98;6.50;;;32.30;50.60;;;;;;5042415;28;20283;-73
2023/08/14 11:42:43;;;;;;;35.35;6.97;;;32.30;50.40;;;;;;5045606;28;20292;-73
2023/08/14 11:45:11;;;;;;;23.80;5.38;;;32.20;50.30;;;;;;5047763;28;20200;-75
2023/08/14 11:47:39;;;;;;;27.33;6.20;;;32.20;50.40;;;;;;5036914;28;20726;-73
2023/08/14 11:50:08;;;;;;;34.08;6.60;;;32.10;50.30;;;;;;5043928;28;20204;-73
2023/08/14 11:52:36;;;;;;;28.05;5.85;;;32.10;50.40;;;;;;5034483;28;20292;-74
2023/08/14 11:55:03;;;;;;;45.70;7.63;;;32.00;50.40;;;;;;5028156;28;20224;-74
2023/08/14 11:57:33;;;;;;;23.65;5.78;;;31.90;50.40;;;;;;5040088;28;20284;-73
2023/08/14 12:00:01;;;;;;;26.52;5.60;;;31.90;50.40;;;;;;5044628;28;20210;-71
2023/08/14 12:02:29;;;;;;;40.88;7.28;;;31.80;50.90;;;;;;5039643;28;20275;-75
2023/08/14 12:04:58;;;;;;;17.20;5.03;;;31.70;50.30;;;;;;5042478;28;20928;-72
2023/08/14 12:07:27;;;;;;;35.95;6.97;;;31.60;50.40;;;;;;5043936;28;20319;-72
2023/08/14 12:09:54;;;;;;;24.90;5.70;;;31.60;50.50;;;;;;5047863;28;20215;-74
2023/08/14 12:12:21;;;;;;;26.55;6.00;;;31.50;50.60;;;;;;5045681;28;20297;-74
2023/08/14 12:14:51;;;;;;;35.00;7.55;;;31.50;50.50;;;;;;5047639;28;20315;-74
2023/08/14 12:17:19;;;;;;;28.00;6.30;;;31.40;50.50;;;;;;5046973;28;20200;-74
2023/08/14 12:19:50;;;;;;;29.10;6.45;;;31.40;50.60;;;;;;5044912;28;20219;-73
2023/08/14 12:22:19;;;;;;;23.73;5.73;;;31.30;50.50;;;;;;5039148;28;20210;-74
2023/08/14 12:24:46;;;;;;;25.30;6.25;;;31.30;50.60;;;;;;5047400;28;20295;-74
2023/08/14 12:27:17;;;;;;;35.45;6.65;;;31.20;51.30;;;;;;5047983;28;20292;-73
2023/08/14 12:29:45;;;;;;;27.27;5.85;;;31.20;50.60;;;;;;5047593;28;20342;-74
2023/08/14 12:32:14;;;;;;;25.93;6.00;;;31.20;50.70;;;;;;5047906;28;20226;-74
2023/08/14 12:34:41;;;;;;;26.45;5.78;;;31.10;50.70;;;;;;5045893;28;20695;-74
2023/08/14 12:37:10;;;;;;;24.77;5.95;;;31.10;50.70;;;;;;5043814;28;20200;-74
2023/08/14 12:39:37;;;;;;;22.87;5.33;;;31.00;50.70;;;;;;5047906;28;20208;-73